createdAt,value
2016-04-18T00:00:37.599Z,0
2016-04-18T00:01:37.617Z,0
2016-04-18T00:02:37.651Z,0
2016-04-18T00:03:37.654Z,0
2016-04-18T00:04:37.656Z,0
2016-04-18T00:05:37.707Z,0
2016-04-18T00:06:37.693Z,0
2016-04-18T00:07:37.696Z,0
2016-04-18T00:08:37.699Z,0
2016-04-18T00:09:37.717Z,0
2016-04-18T00:10:37.735Z,0
2016-04-18T00:11:37.753Z,0
2016-04-18T00:12:37.756Z,0
2016-04-18T00:13:37.774Z,0
2016-04-18T00:14:37.792Z,0
2016-04-18T00:15:38.176Z,0
2016-04-18T00:16:37.861Z,0
2016-04-18T00:17:37.939Z,0
2016-04-18T00:18:37.985Z,0
2016-04-18T00:19:37.874Z,0
2016-04-18T00:20:38.078Z,0
2016-04-18T00:21:37.815Z,0
2016-04-18T00:22:38.145Z,0
2016-04-18T00:23:38.179Z,0
2016-04-18T00:24:38.198Z,0
2016-04-18T00:25:38.227Z,0
2016-04-18T00:26:38.235Z,0
2016-04-18T00:27:38.259Z,0
2016-04-18T00:28:38.283Z,0
2016-04-18T00:29:38.292Z,0
2016-04-18T00:30:38.314Z,0
2016-04-18T00:31:38.334Z,0
2016-04-18T00:32:38.338Z,0
2016-04-18T00:33:38.343Z,0
2016-04-18T00:34:38.410Z,0
2016-04-18T00:35:38.382Z,0
2016-04-18T00:36:38.402Z,0
2016-04-18T00:37:38.405Z,0
2016-04-18T00:38:38.284Z,0
2016-04-18T00:39:38.443Z,0
2016-04-18T00:40:38.446Z,0
2016-04-18T00:41:38.481Z,0
2016-04-18T00:42:38.531Z,0
2016-04-18T00:43:38.534Z,0
2016-04-18T00:44:38.506Z,0
2016-04-18T00:45:38.509Z,0
2016-04-18T00:46:38.527Z,0
2016-04-18T00:47:38.545Z,0
2016-04-18T00:48:38.579Z,0
2016-04-18T00:49:38.598Z,0
2016-04-18T00:50:38.586Z,0
2016-04-18T00:51:38.588Z,0
2016-04-18T00:52:38.606Z,0
2016-04-18T00:53:38.640Z,0
2016-04-18T00:54:38.643Z,0
2016-04-18T00:55:38.661Z,0
2016-04-18T00:56:38.680Z,0
2016-04-18T00:57:38.666Z,0
2016-04-18T00:58:38.685Z,0
2016-04-18T00:59:38.703Z,0
2016-04-18T01:00:38.706Z,0
2016-04-18T01:01:38.740Z,0
2016-04-18T01:02:38.743Z,0
2016-04-18T01:03:38.776Z,0
2016-04-18T01:04:38.763Z,0
2016-04-18T01:05:38.782Z,0
2016-04-18T01:06:38.801Z,0
2016-04-18T01:07:38.803Z,0
2016-04-18T01:08:38.821Z,0
2016-04-18T01:09:38.839Z,0
2016-04-18T01:10:38.873Z,0
2016-04-18T01:11:38.860Z,0
2016-04-18T01:12:38.879Z,0
2016-04-18T01:13:38.881Z,0
2016-04-18T01:14:38.900Z,0
2016-04-18T01:15:38.902Z,0
2016-04-18T01:16:38.920Z,0
2016-04-18T01:17:38.955Z,0
2016-04-18T01:18:39.113Z,0
2016-04-18T01:19:38.976Z,0
2016-04-18T01:20:38.994Z,0
2016-04-18T01:21:38.996Z,0
2016-04-18T01:22:39.000Z,0
2016-04-18T01:23:39.017Z,0
2016-04-18T01:24:39.066Z,0
2016-04-18T01:25:39.070Z,0
2016-04-18T01:26:39.073Z,0
2016-04-18T01:27:39.074Z,0
2016-04-18T01:28:39.078Z,0
2016-04-18T01:29:39.096Z,0
2016-04-18T01:30:39.115Z,0
2016-04-18T01:31:39.149Z,0
2016-04-18T01:32:39.151Z,0
2016-04-18T01:33:39.154Z,0
2016-04-18T01:34:39.172Z,0
2016-04-18T01:35:39.175Z,0
2016-04-18T01:36:39.193Z,0
2016-04-18T01:37:39.196Z,0
2016-04-18T01:38:39.214Z,0
2016-04-18T01:39:39.232Z,0
2016-04-18T01:40:39.281Z,0
2016-04-18T01:41:39.254Z,0
2016-04-18T01:42:39.287Z,0
2016-04-18T01:43:39.290Z,0
2016-04-18T01:44:39.309Z,0
2016-04-18T01:45:39.312Z,0
2016-04-18T01:46:39.329Z,0
2016-04-18T01:47:39.348Z,0
2016-04-18T01:48:39.350Z,0
2016-04-18T01:49:39.353Z,0
2016-04-18T01:50:39.386Z,0
2016-04-18T01:51:39.374Z,0
2016-04-18T01:52:39.392Z,0
2016-04-18T01:53:39.427Z,0
2016-04-18T01:54:39.429Z,0
2016-04-18T01:55:39.447Z,0
2016-04-18T01:56:39.466Z,0
2016-04-18T01:57:39.469Z,0
2016-04-18T01:58:39.486Z,0
2016-04-18T01:59:39.505Z,0
2016-04-18T02:00:39.507Z,0
2016-04-18T02:01:39.557Z,0
2016-04-18T02:02:39.544Z,0
2016-04-18T02:03:39.546Z,0
2016-04-18T02:04:39.566Z,0
2016-04-18T02:05:39.568Z,0
2016-04-18T02:06:39.726Z,0
2016-04-18T02:07:40.026Z,0
2016-04-18T02:08:54.126Z,0
2016-04-18T02:09:40.063Z,0
2016-04-18T02:10:40.253Z,0
2016-04-18T02:11:40.146Z,0
2016-04-18T02:12:39.946Z,0
2016-04-18T02:13:40.340Z,0
2016-04-18T02:14:40.139Z,0
2016-04-18T02:15:40.314Z,0
2016-04-18T02:16:40.270Z,0
2016-04-18T02:17:40.303Z,0
2016-04-18T02:18:39.744Z,0
2016-04-18T02:19:39.762Z,0
2016-04-18T02:20:39.765Z,0
2016-04-18T02:21:39.783Z,0
2016-04-18T02:22:39.817Z,0
2016-04-18T02:23:39.835Z,0
2016-04-18T02:24:39.838Z,0
2016-04-18T02:25:39.840Z,0
2016-04-18T02:26:39.859Z,0
2016-04-18T02:27:39.705Z,0
2016-04-18T02:28:39.114Z,0
2016-04-18T02:29:39.914Z,0
2016-04-18T02:30:39.901Z,0
2016-04-18T02:31:39.935Z,0
2016-04-18T02:32:39.922Z,0
2016-04-18T02:33:39.940Z,0
2016-04-18T02:34:39.958Z,0
2016-04-18T02:35:39.977Z,0
2016-04-18T02:36:39.979Z,0
2016-04-18T02:37:39.998Z,0
2016-04-18T02:38:40.047Z,0
2016-04-18T02:39:40.019Z,0
2016-04-18T02:40:40.038Z,0
2016-04-18T02:41:40.040Z,0
2016-04-18T02:42:40.059Z,0
2016-04-18T02:43:40.076Z,0
2016-04-18T02:44:40.109Z,0
2016-04-18T02:45:40.112Z,0
2016-04-18T02:46:40.115Z,0
2016-04-18T02:47:40.134Z,0
2016-04-18T02:48:40.152Z,0
2016-04-18T02:49:40.155Z,0
2016-04-18T02:50:40.173Z,0
2016-04-18T02:51:40.192Z,0
2016-04-18T02:52:40.210Z,0
2016-04-18T02:53:40.197Z,0
2016-04-18T02:54:40.216Z,0
2016-04-18T02:55:40.234Z,0
2016-04-18T02:56:40.096Z,0
2016-04-18T02:57:40.270Z,0
2016-04-18T02:58:40.288Z,0
2016-04-18T02:59:40.308Z,0
2016-04-18T03:00:40.293Z,0
2016-04-18T03:01:40.313Z,0
2016-04-18T03:02:40.330Z,0
2016-04-18T03:03:40.349Z,0
2016-04-18T03:04:40.367Z,0
2016-04-18T03:05:40.401Z,0
2016-04-18T03:06:40.373Z,0
2016-04-18T03:07:40.391Z,0
2016-04-18T03:08:40.425Z,0
2016-04-18T03:09:40.428Z,0
2016-04-18T03:10:40.446Z,0
2016-04-18T03:11:40.465Z,0
2016-04-18T03:12:40.467Z,0
2016-04-18T03:13:40.470Z,0
2016-04-18T03:14:40.488Z,0
2016-04-18T03:15:40.491Z,0
2016-04-18T03:16:40.525Z,0
2016-04-18T03:17:40.543Z,0
2016-04-18T03:18:40.546Z,0
2016-04-18T03:19:40.548Z,0
2016-04-18T03:20:40.567Z,0
2016-04-18T03:21:40.600Z,0
2016-04-18T03:22:40.603Z,0
2016-04-18T03:23:40.606Z,0
2016-04-18T03:24:40.625Z,0
2016-04-18T03:25:40.627Z,0
2016-04-18T03:26:40.661Z,0
2016-04-18T03:27:40.679Z,0
2016-04-18T03:28:40.666Z,0
2016-04-18T03:29:40.684Z,0
2016-04-18T03:30:40.687Z,0
2016-04-18T03:31:40.705Z,0
2016-04-18T03:32:40.739Z,0
2016-04-18T03:33:40.742Z,0
2016-04-18T03:34:40.744Z,0
2016-04-18T03:35:40.794Z,0
2016-04-18T03:36:40.781Z,0
2016-04-18T03:37:40.815Z,0
2016-04-18T03:38:40.802Z,0
2016-04-18T03:39:40.758Z,0
2016-04-18T03:40:40.840Z,0
2016-04-18T03:41:40.888Z,0
2016-04-18T03:42:40.876Z,0
2016-04-18T03:43:40.894Z,0
2016-04-18T03:44:40.881Z,0
2016-04-18T03:45:40.899Z,0
2016-04-18T03:46:40.917Z,0
2016-04-18T03:47:40.921Z,0
2016-04-18T03:48:40.970Z,0
2016-04-18T03:49:40.973Z,0
2016-04-18T03:50:40.975Z,0
2016-04-18T03:51:41.040Z,0
2016-04-18T03:52:40.997Z,0
2016-04-18T03:53:41.014Z,0
2016-04-18T03:54:41.267Z,0
2016-04-18T03:55:41.035Z,0
2016-04-18T03:56:41.069Z,0
2016-04-18T03:57:41.072Z,0
2016-04-18T03:58:41.075Z,0
2016-04-18T03:59:41.078Z,0
2016-04-18T04:00:41.111Z,0
2016-04-18T04:01:41.114Z,0
2016-04-18T04:02:41.133Z,0
2016-04-18T04:03:41.152Z,0
2016-04-18T04:04:41.154Z,0
2016-04-18T04:05:41.188Z,0
2016-04-18T04:06:41.190Z,0
2016-04-18T04:07:41.193Z,0
2016-04-18T04:08:41.196Z,0
2016-04-18T04:09:41.401Z,0
2016-04-18T04:10:41.232Z,0
2016-04-18T04:11:41.282Z,0
2016-04-18T04:12:41.269Z,0
2016-04-18T04:13:41.459Z,0
2016-04-18T04:14:41.306Z,0
2016-04-18T04:15:41.324Z,0
2016-04-18T04:16:41.326Z,4
2016-04-18T04:17:41.329Z,4
2016-04-18T04:18:41.348Z,4
2016-04-18T04:19:41.365Z,4
2016-04-18T04:20:41.368Z,0
2016-04-18T04:21:41.370Z,0
2016-04-18T04:22:41.390Z,0
2016-04-18T04:23:41.423Z,0
2016-04-18T04:24:41.489Z,0
2016-04-18T04:25:41.445Z,0
2016-04-18T04:26:41.431Z,4
2016-04-18T04:27:41.450Z,4
2016-04-18T04:28:41.468Z,4
2016-04-18T04:29:41.503Z,4
2016-04-18T04:30:41.505Z,4
2016-04-18T04:31:41.508Z,4
2016-04-18T04:32:41.557Z,4
2016-04-18T04:33:41.544Z,4
2016-04-18T04:34:41.531Z,4
2016-04-18T04:35:41.565Z,4
2016-04-18T04:36:41.583Z,8
2016-04-18T04:37:41.585Z,4
2016-04-18T04:38:41.604Z,4
2016-04-18T04:39:41.794Z,8
2016-04-18T04:40:41.626Z,4
2016-04-18T04:41:41.644Z,8
2016-04-18T04:42:41.646Z,8
2016-04-18T04:43:41.665Z,12
2016-04-18T04:44:41.542Z,8
2016-04-18T04:45:41.701Z,8
2016-04-18T04:46:41.719Z,12
2016-04-18T04:47:41.721Z,12
2016-04-18T04:48:41.755Z,8
2016-04-18T04:49:41.774Z,12
2016-04-18T04:50:41.761Z,16
2016-04-18T04:51:41.795Z,16
2016-04-18T04:52:41.797Z,16
2016-04-18T04:53:41.816Z,12
2016-04-18T04:54:41.928Z,16
2016-04-18T04:55:41.836Z,20
2016-04-18T04:56:41.839Z,20
2016-04-18T04:57:41.874Z,20
2016-04-18T04:58:41.860Z,20
2016-04-18T04:59:41.879Z,24
2016-04-18T05:00:41.913Z,24
2016-04-18T05:01:41.915Z,28
2016-04-18T05:02:41.918Z,28
2016-04-18T05:03:41.920Z,28
2016-04-18T05:04:41.939Z,36
2016-04-18T05:05:41.942Z,32
2016-04-18T05:06:41.960Z,36
2016-04-18T05:07:42.010Z,36
2016-04-18T05:08:42.043Z,40
2016-04-18T05:09:41.968Z,40
2016-04-18T05:10:42.017Z,40
2016-04-18T05:11:42.036Z,40
2016-04-18T05:12:42.054Z,40
2016-04-18T05:13:42.056Z,40
2016-04-18T05:14:42.075Z,40
2016-04-18T05:15:42.125Z,36
2016-04-18T05:16:42.097Z,36
2016-04-18T05:17:42.130Z,36
2016-04-18T05:18:42.133Z,36
2016-04-18T05:19:42.150Z,40
2016-04-18T05:20:42.185Z,36
2016-04-18T05:21:42.016Z,36
2016-04-18T05:22:42.206Z,36
2016-04-18T05:23:42.193Z,32
2016-04-18T05:24:42.524Z,36
2016-04-18T05:25:42.214Z,40
2016-04-18T05:26:42.248Z,40
2016-04-18T05:27:42.251Z,36
2016-04-18T05:28:42.268Z,36
2016-04-18T05:29:42.261Z,36
2016-04-18T05:30:42.327Z,36
2016-04-18T05:31:42.299Z,36
2016-04-18T05:32:42.333Z,36
2016-04-18T05:33:42.335Z,40
2016-04-18T05:34:42.338Z,44
2016-04-18T05:35:42.356Z,40
2016-04-18T05:36:42.405Z,40
2016-04-18T05:37:42.408Z,40
2016-04-18T05:38:42.380Z,40
2016-04-18T05:39:42.383Z,40
2016-04-18T05:40:42.432Z,48
2016-04-18T05:41:42.435Z,56
2016-04-18T05:42:42.437Z,60
2016-04-18T05:43:42.534Z,56
2016-04-18T05:44:42.676Z,56
2016-04-18T05:45:42.492Z,48
2016-04-18T05:46:42.495Z,48
2016-04-18T05:47:42.513Z,52
2016-04-18T05:48:42.532Z,56
2016-04-18T05:49:42.534Z,52
2016-04-18T05:50:42.600Z,52
2016-04-18T05:51:42.602Z,52
2016-04-18T05:52:42.448Z,48
2016-04-18T05:53:42.592Z,48
2016-04-18T05:54:43.048Z,44
2016-04-18T05:55:42.614Z,44
2016-04-18T05:56:42.632Z,44
2016-04-18T05:57:42.666Z,44
2016-04-18T05:58:42.669Z,44
2016-04-18T05:59:42.686Z,52
2016-04-18T06:00:42.674Z,48
2016-04-18T06:01:42.691Z,56
2016-04-18T06:02:42.710Z,56
2016-04-18T06:03:42.728Z,60
2016-04-18T06:04:42.747Z,64
2016-04-18T06:05:42.750Z,64
2016-04-18T06:06:42.768Z,60
2016-04-18T06:07:42.771Z,56
2016-04-18T06:08:42.788Z,56
2016-04-18T06:09:42.885Z,52
2016-04-18T06:10:42.809Z,60
2016-04-18T06:11:42.828Z,64
2016-04-18T06:12:42.862Z,68
2016-04-18T06:13:42.849Z,68
2016-04-18T06:14:42.883Z,72
2016-04-18T06:15:42.870Z,80
2016-04-18T06:16:42.888Z,84
2016-04-18T06:17:42.906Z,84
2016-04-18T06:18:42.910Z,96
2016-04-18T06:19:42.959Z,104
2016-04-18T06:20:42.946Z,112
2016-04-18T06:21:42.964Z,120
2016-04-18T06:22:42.967Z,116
2016-04-18T06:23:42.985Z,108
2016-04-18T06:24:42.894Z,108
2016-04-18T06:25:43.022Z,108
2016-04-18T06:26:43.025Z,104
2016-04-18T06:27:43.075Z,100
2016-04-18T06:28:43.045Z,108
2016-04-18T06:29:43.064Z,112
2016-04-18T06:30:43.083Z,116
2016-04-18T06:31:43.085Z,120
2016-04-18T06:32:43.119Z,144
2016-04-18T06:33:43.121Z,168
2016-04-18T06:34:43.141Z,200
2016-04-18T06:35:43.143Z,212
2016-04-18T06:36:43.161Z,224
2016-04-18T06:37:43.164Z,216
2016-04-18T06:38:43.182Z,208
2016-04-18T06:39:43.231Z,208
2016-04-18T06:40:43.219Z,196
2016-04-18T06:41:43.221Z,188
2016-04-18T06:42:43.240Z,188
2016-04-18T06:43:43.243Z,188
2016-04-18T06:44:43.260Z,196
2016-04-18T06:45:43.279Z,196
2016-04-18T06:46:43.312Z,208
2016-04-18T06:47:43.878Z,232
2016-04-18T06:48:43.162Z,256
2016-04-18T06:49:43.368Z,272
2016-04-18T06:50:43.371Z,276
2016-04-18T06:51:43.357Z,296
2016-04-18T06:52:43.392Z,292
2016-04-18T06:53:43.378Z,300
2016-04-18T06:54:43.412Z,292
2016-04-18T06:55:43.400Z,288
2016-04-18T06:56:43.450Z,324
2016-04-18T06:57:43.420Z,332
2016-04-18T06:58:43.439Z,332
2016-04-18T06:59:43.472Z,324
2016-04-18T07:00:43.491Z,340
2016-04-18T07:01:43.477Z,384
2016-04-18T07:02:43.511Z,456
2016-04-18T07:03:43.514Z,528
2016-04-18T07:04:43.532Z,544
2016-04-18T07:05:43.551Z,520
2016-04-18T07:06:43.554Z,444
2016-04-18T07:07:43.572Z,408
2016-04-18T07:08:43.591Z,424
2016-04-18T07:09:43.578Z,488
2016-04-18T07:10:43.627Z,536
2016-04-18T07:11:43.630Z,588
2016-04-18T07:12:43.648Z,552
2016-04-18T07:13:43.838Z,496
2016-04-18T07:14:43.653Z,452
2016-04-18T07:15:43.672Z,416
2016-04-18T07:16:43.706Z,400
2016-04-18T07:17:43.709Z,424
2016-04-18T07:18:43.711Z,448
2016-04-18T07:19:43.729Z,480
2016-04-18T07:20:43.747Z,456
2016-04-18T07:21:43.742Z,420
2016-04-18T07:22:43.760Z,428
2016-04-18T07:23:43.778Z,436
2016-04-18T07:24:43.797Z,508
2016-04-18T07:25:43.847Z,588
2016-04-18T07:26:43.818Z,580
2016-04-18T07:27:43.946Z,512
2016-04-18T07:28:43.839Z,464
2016-04-18T07:29:43.857Z,364
2016-04-18T07:30:43.875Z,284
2016-04-18T07:31:43.941Z,256
2016-04-18T07:32:43.912Z,236
2016-04-18T07:33:43.915Z,228
2016-04-18T07:34:43.918Z,236
2016-04-18T07:35:43.935Z,268
2016-04-18T07:36:43.954Z,288
2016-04-18T07:37:43.972Z,292
2016-04-18T07:38:43.990Z,300
2016-04-18T07:39:44.009Z,316
2016-04-18T07:40:43.995Z,320
2016-04-18T07:41:44.029Z,364
2016-04-18T07:42:44.048Z,412
2016-04-18T07:43:44.050Z,420
2016-04-18T07:44:44.053Z,440
2016-04-18T07:45:44.072Z,480
2016-04-18T07:46:44.121Z,488
2016-04-18T07:47:44.124Z,440
2016-04-18T07:48:44.142Z,444
2016-04-18T07:49:44.145Z,536
2016-04-18T07:50:44.179Z,600
2016-04-18T07:51:44.167Z,616
2016-04-18T07:52:44.372Z,592
2016-04-18T07:53:44.203Z,576
2016-04-18T07:54:44.205Z,520
2016-04-18T07:55:44.192Z,520
2016-04-18T07:56:44.241Z,548
2016-04-18T07:57:44.244Z,532
2016-04-18T07:58:44.263Z,456
2016-04-18T07:59:44.266Z,400
2016-04-18T08:00:44.268Z,372
2016-04-18T08:01:44.318Z,364
2016-04-18T08:02:44.914Z,360
2016-04-18T08:03:44.324Z,368
2016-04-18T08:04:44.326Z,372
2016-04-18T08:05:44.344Z,364
2016-04-18T08:06:44.362Z,380
2016-04-18T08:07:44.381Z,420
2016-04-18T08:08:44.384Z,456
2016-04-18T08:09:44.434Z,440
2016-04-18T08:10:44.420Z,444
2016-04-18T08:11:44.423Z,456
2016-04-18T08:12:44.284Z,416
2016-04-18T08:13:44.475Z,360
2016-04-18T08:14:44.478Z,316
2016-04-18T08:15:44.480Z,308
2016-04-18T08:16:44.498Z,312
2016-04-18T08:17:44.501Z,340
2016-04-18T08:18:44.536Z,372
2016-04-18T08:19:44.569Z,368
2016-04-18T08:20:44.542Z,372
2016-04-18T08:21:44.606Z,364
2016-04-18T08:22:44.625Z,352
2016-04-18T08:23:44.597Z,384
2016-04-18T08:24:44.600Z,444
2016-04-18T08:25:44.617Z,456
2016-04-18T08:26:44.635Z,436
2016-04-18T08:27:44.653Z,440
2016-04-18T08:28:44.687Z,468
2016-04-18T08:29:44.674Z,460
2016-04-18T08:30:44.693Z,444
2016-04-18T08:31:44.696Z,496
2016-04-18T08:32:44.746Z,520
2016-04-18T08:33:44.733Z,548
2016-04-18T08:34:44.751Z,628
2016-04-18T08:35:44.768Z,712
2016-04-18T08:36:44.772Z,788
2016-04-18T08:37:44.837Z,792
2016-04-18T08:38:44.808Z,792
2016-04-18T08:39:44.827Z,764
2016-04-18T08:40:44.829Z,708
2016-04-18T08:41:44.832Z,660
2016-04-18T08:42:44.881Z,624
2016-04-18T08:43:44.900Z,556
2016-04-18T08:44:44.871Z,632
2016-04-18T08:45:44.890Z,632
2016-04-18T08:46:44.908Z,564
2016-04-18T08:47:44.926Z,532
2016-04-18T08:48:44.944Z,516
2016-04-18T08:49:44.947Z,504
2016-04-18T08:50:44.981Z,472
2016-04-18T08:51:44.984Z,464
2016-04-18T08:52:44.987Z,468
2016-04-18T08:53:45.005Z,508
2016-04-18T08:54:45.023Z,572
2016-04-18T08:55:45.151Z,596
2016-04-18T08:56:45.044Z,580
2016-04-18T08:57:45.062Z,568
2016-04-18T08:58:45.096Z,560
2016-04-18T08:59:45.099Z,568
2016-04-18T09:00:45.116Z,564
2016-04-18T09:01:45.120Z,568
2016-04-18T09:02:45.138Z,600
2016-04-18T09:03:46.469Z,628
2016-04-18T09:04:45.893Z,596
2016-04-18T09:05:48.038Z,524
2016-04-18T09:06:46.305Z,480
2016-04-18T09:07:45.215Z,484
2016-04-18T09:08:45.218Z,500
2016-04-18T09:09:45.236Z,504
2016-04-18T09:10:45.253Z,516
2016-04-18T09:11:45.240Z,528
2016-04-18T09:12:45.322Z,508
2016-04-18T09:13:45.308Z,484
2016-04-18T09:14:45.359Z,480
2016-04-18T09:15:45.314Z,488
2016-04-18T09:16:45.332Z,504
2016-04-18T09:17:45.537Z,500
2016-04-18T09:18:45.353Z,488
2016-04-18T09:19:45.387Z,496
2016-04-18T09:20:45.390Z,500
2016-04-18T09:21:45.777Z,500
2016-04-18T09:22:45.493Z,504
2016-04-18T09:23:45.538Z,512
2016-04-18T09:24:45.583Z,512
2016-04-18T09:25:45.798Z,544
2016-04-18T09:26:45.687Z,608
2016-04-18T09:27:45.752Z,600
2016-04-18T09:28:45.755Z,560
2016-04-18T09:29:45.772Z,560
2016-04-18T09:30:45.822Z,596
2016-04-18T09:31:48.006Z,680
2016-04-18T09:32:48.608Z,760
2016-04-18T09:33:47.412Z,864
2016-04-18T09:34:45.873Z,956
2016-04-18T09:35:45.913Z,1016
2016-04-18T09:36:45.982Z,1076
2016-04-18T09:37:45.939Z,1124
2016-04-18T09:38:48.335Z,1088
2016-04-18T09:39:48.729Z,1124
2016-04-18T09:40:46.046Z,1204
2016-04-18T09:41:46.004Z,1264
2016-04-18T09:42:48.492Z,1268
2016-04-18T09:43:47.714Z,1200
2016-04-18T09:44:46.060Z,1124
2016-04-18T09:45:46.064Z,1068
2016-04-18T09:46:46.067Z,1000
2016-04-18T09:47:46.086Z,968
2016-04-18T09:48:46.120Z,992
2016-04-18T09:49:46.107Z,1024
2016-04-18T09:50:46.124Z,920
2016-04-18T09:51:46.159Z,772
2016-04-18T09:52:46.146Z,640
2016-04-18T09:53:46.164Z,544
2016-04-18T09:54:46.182Z,660
2016-04-18T09:55:46.248Z,824
2016-04-18T09:56:46.219Z,1020
2016-04-18T09:57:46.222Z,1200
2016-04-18T09:58:46.256Z,1236
2016-04-18T09:59:46.259Z,1268
2016-04-18T10:00:46.277Z,1356
2016-04-18T10:01:46.279Z,1336
2016-04-18T10:02:46.329Z,1328
2016-04-18T10:03:46.331Z,1340
2016-04-18T10:04:46.319Z,1324
2016-04-18T10:05:46.322Z,1272
2016-04-18T10:06:46.356Z,1260
2016-04-18T10:07:46.359Z,1208
2016-04-18T10:08:46.376Z,1092
2016-04-18T10:09:46.411Z,1016
2016-04-18T10:10:46.570Z,988
2016-04-18T10:11:46.463Z,1048
2016-04-18T10:12:46.453Z,1096
2016-04-18T10:13:46.472Z,1124
2016-04-18T10:14:46.489Z,1068
2016-04-18T10:15:46.492Z,1116
2016-04-18T10:16:46.495Z,1280
2016-04-18T10:17:46.545Z,1260
2016-04-18T10:18:46.531Z,1192
2016-04-18T10:19:46.533Z,1256
2016-04-18T10:20:46.552Z,1392
2016-04-18T10:21:46.555Z,1496
2016-04-18T10:22:46.574Z,1440
2016-04-18T10:23:46.591Z,1316
2016-04-18T10:24:46.626Z,1036
2016-04-18T10:25:46.660Z,956
2016-04-18T10:26:47.099Z,952
2016-04-18T10:27:48.040Z,996
2016-04-18T10:28:46.668Z,1116
2016-04-18T10:29:46.686Z,1168
2016-04-18T10:30:46.704Z,1216
2016-04-18T10:31:46.691Z,1240
2016-04-18T10:32:46.725Z,1380
2016-04-18T10:33:46.759Z,1520
2016-04-18T10:34:48.387Z,1512
2016-04-18T10:35:47.890Z,1516
2016-04-18T10:36:46.784Z,1524
2016-04-18T10:37:46.786Z,1488
2016-04-18T10:38:46.804Z,1400
2016-04-18T10:39:46.822Z,1332
2016-04-18T10:40:47.107Z,1356
2016-04-18T10:41:46.842Z,1388
2016-04-18T10:42:46.861Z,1464
2016-04-18T10:43:46.989Z,1556
2016-04-18T10:44:46.914Z,1640
2016-04-18T10:45:46.916Z,1628
2016-04-18T10:46:46.936Z,1496
2016-04-18T10:47:46.953Z,1424
2016-04-18T10:48:46.987Z,1464
2016-04-18T10:49:46.975Z,1584
2016-04-18T10:50:46.993Z,1672
2016-04-18T10:51:46.979Z,1688
2016-04-18T10:52:47.013Z,1680
2016-04-18T10:53:47.032Z,1660
2016-04-18T10:54:47.097Z,1640
2016-04-18T10:55:47.099Z,1532
2016-04-18T10:56:47.602Z,1396
2016-04-18T10:57:47.105Z,1192
2016-04-18T10:58:47.107Z,1032
2016-04-18T10:59:47.127Z,920
2016-04-18T11:00:47.129Z,868
2016-04-18T11:01:47.163Z,844
2016-04-18T11:02:47.149Z,840
2016-04-18T11:03:47.184Z,864
2016-04-18T11:04:47.201Z,916
2016-04-18T11:05:47.220Z,932
2016-04-18T11:06:47.223Z,956
2016-04-18T11:07:47.241Z,1064
2016-04-18T11:08:47.244Z,1208
2016-04-18T11:09:47.309Z,1240
2016-04-18T11:10:47.531Z,1392
2016-04-18T11:11:47.298Z,1580
2016-04-18T11:12:47.301Z,1644
2016-04-18T11:13:47.336Z,1636
2016-04-18T11:14:47.353Z,1600
2016-04-18T11:15:47.357Z,1524
2016-04-18T11:16:47.391Z,1436
2016-04-18T11:17:47.394Z,1336
2016-04-18T11:18:47.427Z,1264
2016-04-18T11:19:47.430Z,1112
2016-04-18T11:20:47.433Z,944
2016-04-18T11:21:47.716Z,804
2016-04-18T11:22:47.361Z,700
2016-04-18T11:23:47.488Z,704
2016-04-18T11:24:47.506Z,784
2016-04-18T11:25:47.540Z,800
2016-04-18T11:26:47.543Z,788
2016-04-18T11:27:47.560Z,772
2016-04-18T11:28:47.564Z,740
2016-04-18T11:29:47.582Z,640
2016-04-18T11:30:47.599Z,528
2016-04-18T11:31:47.634Z,472
2016-04-18T11:32:51.840Z,496
2016-04-18T11:33:47.640Z,580
2016-04-18T11:34:47.643Z,668
2016-04-18T11:35:47.660Z,796
2016-04-18T11:36:47.678Z,940
2016-04-18T11:37:47.712Z,904
2016-04-18T11:38:47.715Z,860
2016-04-18T11:39:47.734Z,888
2016-04-18T11:40:47.815Z,952
2016-04-18T11:41:47.770Z,1044
2016-04-18T11:42:47.773Z,1168
2016-04-18T11:43:47.791Z,1364
2016-04-18T11:44:47.809Z,1612
2016-04-18T11:45:47.812Z,1780
2016-04-18T11:46:47.831Z,1672
2016-04-18T11:47:48.036Z,1572
2016-04-18T11:48:47.867Z,1712
2016-04-18T11:49:47.886Z,1848
2016-04-18T11:50:47.903Z,2036
2016-04-18T11:51:47.922Z,2228
2016-04-18T11:52:47.941Z,2288
2016-04-18T11:53:47.959Z,2356
2016-04-18T11:54:48.150Z,2728
2016-04-18T11:55:47.980Z,3520
2016-04-18T11:56:47.983Z,4748
2016-04-18T11:57:48.001Z,3328
2016-04-18T11:58:48.035Z,2840
2016-04-18T11:59:48.037Z,2464
2016-04-18T12:00:48.071Z,2148
2016-04-18T12:01:48.074Z,1952
2016-04-18T12:02:48.093Z,2236
2016-04-18T12:03:48.095Z,4100
2016-04-18T12:04:48.130Z,2136
2016-04-18T12:05:48.131Z,2252
2016-04-18T12:06:48.165Z,2860
2016-04-18T12:07:48.153Z,3032
2016-04-18T12:08:48.187Z,2072
2016-04-18T12:09:48.205Z,1796
2016-04-18T12:10:48.223Z,1424
2016-04-18T12:11:48.242Z,1228
2016-04-18T12:12:48.260Z,1152
2016-04-18T12:13:48.278Z,1188
2016-04-18T12:14:48.281Z,1288
2016-04-18T12:15:48.314Z,1352
2016-04-18T12:16:48.333Z,1360
2016-04-18T12:17:48.351Z,1320
2016-04-18T12:18:48.353Z,1304
2016-04-18T12:19:48.356Z,1152
2016-04-18T12:20:48.391Z,1052
2016-04-18T12:21:48.409Z,1076
2016-04-18T12:22:48.427Z,1176
2016-04-18T12:23:48.431Z,1316
2016-04-18T12:24:48.463Z,1428
2016-04-18T12:25:48.372Z,1436
2016-04-18T12:26:48.501Z,1352
2016-04-18T12:27:48.519Z,1236
2016-04-18T12:28:48.538Z,1144
2016-04-18T12:29:48.572Z,1100
2016-04-18T12:30:48.574Z,1068
2016-04-18T12:31:48.577Z,1080
2016-04-18T12:32:48.596Z,1156
2016-04-18T12:33:48.613Z,1260
2016-04-18T12:34:48.647Z,1364
2016-04-18T12:35:48.666Z,1444
2016-04-18T12:36:48.668Z,1512
2016-04-18T12:37:48.702Z,1588
2016-04-18T12:38:48.705Z,1624
2016-04-18T12:39:48.739Z,1628
2016-04-18T12:40:48.820Z,1632
2016-04-18T12:41:48.760Z,1636
2016-04-18T12:42:48.762Z,1636
2016-04-18T12:43:48.875Z,1612
2016-04-18T12:44:48.862Z,1624
2016-04-18T12:45:48.817Z,1640
2016-04-18T12:46:48.836Z,1628
2016-04-18T12:47:48.854Z,1604
2016-04-18T12:48:48.873Z,1592
2016-04-18T12:49:48.891Z,1608
2016-04-18T12:50:48.925Z,1628
2016-04-18T12:51:48.928Z,1604
2016-04-18T12:52:48.945Z,1512
2016-04-18T12:53:48.964Z,1384
2016-04-18T12:54:48.966Z,1288
2016-04-18T12:55:49.141Z,1288
2016-04-18T12:56:49.019Z,1340
2016-04-18T12:57:48.896Z,1400
2016-04-18T12:58:49.087Z,1472
2016-04-18T12:59:49.230Z,1484
2016-04-18T13:00:49.091Z,1524
2016-04-18T13:01:49.095Z,1608
2016-04-18T13:02:49.113Z,1696
2016-04-18T13:03:49.132Z,1728
2016-04-18T13:04:49.150Z,1648
2016-04-18T13:05:49.184Z,1676
2016-04-18T13:06:49.186Z,1740
2016-04-18T13:07:49.205Z,1652
2016-04-18T13:08:49.223Z,1616
2016-04-18T13:09:49.257Z,1688
2016-04-18T13:10:49.260Z,1788
2016-04-18T13:11:49.279Z,1908
2016-04-18T13:12:49.328Z,1796
2016-04-18T13:13:49.362Z,1744
2016-04-18T13:14:49.348Z,1712
2016-04-18T13:15:49.336Z,1748
2016-04-18T13:16:49.370Z,1640
2016-04-18T13:17:49.387Z,1492
2016-04-18T13:18:49.422Z,1428
2016-04-18T13:19:49.440Z,1388
2016-04-18T13:20:49.489Z,1328
2016-04-18T13:21:49.477Z,1248
2016-04-18T13:22:49.495Z,1148
2016-04-18T13:23:49.482Z,1084
2016-04-18T13:24:49.516Z,1028
2016-04-18T13:25:49.519Z,944
2016-04-18T13:26:49.553Z,924
2016-04-18T13:27:49.571Z,892
2016-04-18T13:28:49.574Z,808
2016-04-18T13:29:49.608Z,724
2016-04-18T13:30:49.627Z,620
2016-04-18T13:31:49.629Z,560
2016-04-18T13:32:49.646Z,536
2016-04-18T13:33:49.680Z,540
2016-04-18T13:34:49.683Z,572
2016-04-18T13:35:49.718Z,612
2016-04-18T13:36:49.720Z,660
2016-04-18T13:37:49.754Z,628
2016-04-18T13:38:49.773Z,572
2016-04-18T13:39:49.791Z,540
2016-04-18T13:40:49.793Z,520
2016-04-18T13:41:49.827Z,532
2016-04-18T13:42:49.845Z,576
2016-04-18T13:43:49.896Z,636
2016-04-18T13:44:49.867Z,700
2016-04-18T13:45:49.885Z,732
2016-04-18T13:46:49.903Z,720
2016-04-18T13:47:49.922Z,684
2016-04-18T13:48:49.940Z,624
2016-04-18T13:49:49.959Z,588
2016-04-18T13:50:49.976Z,560
2016-04-18T13:51:49.995Z,548
2016-04-18T13:52:50.014Z,532
2016-04-18T13:53:50.031Z,504
2016-04-18T13:54:50.034Z,512
2016-04-18T13:55:50.052Z,496
2016-04-18T13:56:50.086Z,492
2016-04-18T13:57:50.089Z,504
2016-04-18T13:58:50.139Z,524
2016-04-18T13:59:50.125Z,540
2016-04-18T14:00:50.128Z,568
2016-04-18T14:01:50.162Z,588
2016-04-18T14:02:50.040Z,636